Time;durP1;ratioP1;P1;durP2;ratioP2;P2;SDS_P1;SDS_P2;PMS_P1;PMS_P2;Temp;Humidity;BMP_temperature;BMP_pressure;BME280_temperature;BME280_humidity;BME280_pressure;Samples;Min_cycle;Max_cycle;Signal;HPM_P1;HPM_P2
2023/06/28 01:22:26;;;;;;;;;;;26.20;46.80;;;;;;3032153;19;5388;-70
2023/06/28 01:23:26;;;;;;;;;;;26.20;46.80;;;;;;3048533;19;4509;-81
2023/06/28 01:24:27;;;;;;;;;;;26.10;46.70;;;;;;3043484;19;5015;-81
2023/06/28 01:25:28;;;;;;;;;;;26.10;46.70;;;;;;3049961;19;5010;-81
2023/06/28 01:26:28;;;;;;;;;;;26.10;46.70;;;;;;3021539;19;5361;-81
2023/06/28 01:27:29;;;;;;;;;;;25.80;46.50;;;;;;3050134;19;5122;-68
2023/06/28 01:28:30;;;;;;;;;;;26.10;46.80;;;;;;3046318;19;5049;-68
2023/06/28 01:29:31;;;;;;;;;;;26.10;46.70;;;;;;3050860;19;4420;-79
2023/06/28 01:30:37;;;;;;;;;;;26.10;46.80;;;;;;3050026;19;5114;-79
2023/06/28 01:31:37;;;;;;;;;;;26.10;46.80;;;;;;3050815;19;5157;-80
2023/06/28 01:32:38;;;;;;;;;;;26.10;46.80;;;;;;3047989;19;4969;-79
2023/06/28 01:33:42;;;;;;;;;;;26.10;46.80;;;;;;3041415;19;5456;-78
2023/06/28 01:34:42;;;;;;;;;;;26.10;46.70;;;;;;3051612;19;5097;-78
2023/06/28 01:35:43;;;;;;;;;;;26.10;46.70;;;;;;3049964;19;5103;-82
2023/06/28 01:36:43;;;;;;;;;;;26.10;46.70;;;;;;3049455;19;5103;-81
2023/06/28 01:37:44;;;;;;;;;;;26.10;46.80;;;;;;3051839;19;5131;-82
2023/06/28 01:38:45;;;;;;;;;;;26.10;46.80;;;;;;3041022;19;5270;-82
2023/06/28 01:39:45;;;;;;;;;;;26.10;46.70;;;;;;3051847;19;5066;-82
2023/06/28 01:40:48;;;;;;;;;;;26.10;46.80;;;;;;3051238;19;4972;-81
2023/06/28 01:41:49;;;;;;;;;;;26.20;46.90;;;;;;3052030;19;4420;-81
2023/06/28 01:42:50;;;;;;;;;;;26.10;46.80;;;;;;3052268;19;5135;-81
2023/06/28 01:43:51;;;;;;;;;;;26.10;46.80;;;;;;3030582;19;5063;-82
2023/06/28 01:44:51;;;;;;;;;;;26.10;46.80;;;;;;3046239;19;5100;-82
2023/06/28 01:45:52;;;;;;;;;;;26.10;46.80;;;;;;3053055;19;4857;-80
2023/06/28 01:46:53;;;;;;;;;;;26.10;46.80;;;;;;3052262;19;4499;-82
2023/06/28 01:47:53;;;;;;;;;;;26.10;46.80;;;;;;3050771;19;5686;-82
2023/06/28 01:48:54;;;;;;;;;;;26.10;46.80;;;;;;3050174;19;5112;-83
2023/06/28 01:49:55;;;;;;;;;;;26.10;46.90;;;;;;3051044;19;5030;-81
2023/06/28 01:50:55;;;;;;;;;;;26.00;46.80;;;;;;3050814;19;4497;-82
2023/06/28 01:51:56;;;;;;;;;;;26.00;46.80;;;;;;3051737;19;4445;-82
2023/06/28 01:52:58;;;;;;;;;;;26.00;46.80;;;;;;3050851;19;5701;-82
2023/06/28 01:53:58;;;;;;;;;;;26.00;46.80;;;;;;3046725;19;4478;-81
2023/06/28 01:54:59;;;;;;;;;;;26.00;46.90;;;;;;3051478;19;4367;-81
2023/06/28 01:56:00;;;;;;;;;;;26.00;46.80;;;;;;3051194;19;4507;-82
2023/06/28 01:57:00;;;;;;;;;;;26.10;46.80;;;;;;3051368;19;5003;-81
2023/06/28 01:58:01;;;;;;;;;;;26.10;46.90;;;;;;3050952;19;4379;-82
2023/06/28 01:59:02;;;;;;;;;;;26.00;46.80;;;;;;3046813;19;5029;-82
2023/06/28 02:00:08;;;;;;;;;;;26.00;46.80;;;;;;3052065;19;4892;-82
2023/06/28 02:01:09;;;;;;;;;;;26.00;46.80;;;;;;3051165;19;4939;-83
2023/06/28 02:02:10;;;;;;;;;;;26.00;46.80;;;;;;3051578;19;4461;-82
2023/06/28 02:03:10;;;;;;;;;;;26.00;46.80;;;;;;3054742;19;4991;-78
2023/06/28 02:04:11;;;;;;;;;;;26.00;46.90;;;;;;3043257;19;4599;-78
2023/06/28 02:05:12;;;;;;;;;;;26.00;46.80;;;;;;3053007;19;4869;-78
2023/06/28 02:06:14;;;;;;;;;;;26.00;46.70;;;;;;3053659;19;794;-78
2023/06/28 02:07:14;;;;;;;;;;;26.00;46.80;;;;;;3052313;19;5016;-85
2023/06/28 02:08:15;;;;;;;;;;;26.00;46.80;;;;;;3053266;19;4412;-83
2023/06/28 02:09:15;;;;;;;;;;;26.00;46.70;;;;;;3052066;19;4556;-84
2023/06/28 02:10:17;;;;;;;;;;;26.00;46.80;;;;;;3054546;19;4734;-83
2023/06/28 02:11:17;;;;;;;;;;;26.00;46.80;;;;;;3054229;19;5293;-83
2023/06/28 02:12:18;;;;;;;;;;;26.00;46.80;;;;;;3054410;19;4405;-84
2023/06/28 02:13:19;;;;;;;;;;;26.00;46.80;;;;;;3054223;19;5236;-84
2023/06/28 02:14:19;;;;;;;;;;;26.00;46.80;;;;;;3045715;19;5472;-83
2023/06/28 02:15:21;;;;;;;;;;;26.00;46.80;;;;;;3054274;19;5073;-82
2023/06/28 02:16:22;;;;;;;;;;;26.00;46.80;;;;;;3054498;19;6121;-83
2023/06/28 02:17:23;;;;;;;;;;;26.00;46.80;;;;;;3054605;19;4421;-83
2023/06/28 02:18:27;;;;;;;;;;;25.90;46.70;;;;;;3053691;19;5102;-83
2023/06/28 02:19:29;;;;;;;;;;;26.00;46.80;;;;;;3050211;19;5020;-84
2023/06/28 02:20:30;;;;;;;;;;;26.00;46.70;;;;;;3054549;19;5084;-83
2023/06/28 02:21:30;;;;;;;;;;;26.00;46.80;;;;;;3054383;19;5079;-83
2023/06/28 02:22:31;;;;;;;;;;;26.00;46.80;;;;;;3053238;19;4559;-83
2023/06/28 02:23:32;;;;;;;;;;;26.00;46.90;;;;;;3051275;19;4386;-83
2023/06/28 02:24:32;;;;;;;;;;;26.00;46.80;;;;;;3054666;19;5124;-83
2023/06/28 02:25:33;;;;;;;;;;;26.00;46.80;;;;;;3054315;19;4566;-83
2023/06/28 02:26:35;;;;;;;;;;;26.00;46.90;;;;;;3054536;19;5088;-83
2023/06/28 02:27:35;;;;;;;;;;;26.00;46.90;;;;;;3053905;19;4978;-85
2023/06/28 02:28:36;;;;;;;;;;;26.00;46.90;;;;;;3052205;19;4427;-85
2023/06/28 02:29:37;;;;;;;;;;;26.00;46.90;;;;;;3052826;19;4562;-85
2023/06/28 02:30:37;;;;;;;;;;;26.00;47.00;;;;;;3054317;19;5070;-85
2023/06/28 02:31:38;;;;;;;;;;;26.00;46.90;;;;;;3054879;19;4437;-85
2023/06/28 02:32:38;;;;;;;;;;;26.00;46.90;;;;;;3051964;19;5123;-82
2023/06/28 02:33:39;;;;;;;;;;;26.00;46.90;;;;;;3051022;19;5255;-83
2023/06/28 02:34:40;;;;;;;;;;;26.00;46.90;;;;;;3052484;19;5009;-83
2023/06/28 02:35:40;;;;;;;;;;;25.90;46.80;;;;;;3053027;19;5194;-82
2023/06/28 02:36:41;;;;;;;;;;;26.00;46.90;;;;;;3052548;19;5123;-82
2023/06/28 02:37:42;;;;;;;;;;;26.00;46.90;;;;;;3054660;19;5098;-82
2023/06/28 02:38:42;;;;;;;;;;;26.00;46.90;;;;;;3043036;19;5096;-82
2023/06/28 02:39:43;;;;;;;;;;;26.00;46.90;;;;;;3050811;19;5155;-70
2023/06/28 02:40:43;;;;;;;;;;;25.90;46.90;;;;;;3050783;19;4389;-70
2023/06/28 02:41:44;;;;;;;;;;;25.90;46.90;;;;;;3053698;19;4572;-70
2023/06/28 02:42:45;;;;;;;;;;;25.90;46.80;;;;;;3052158;19;4606;-70
2023/06/28 02:43:45;;;;;;;;;;;25.90;46.80;;;;;;3052490;19;5521;-70
2023/06/28 02:44:46;;;;;;;;;;;25.90;46.90;;;;;;3052353;19;4609;-70
2023/06/28 02:45:47;;;;;;;;;;;25.90;46.90;;;;;;3052239;19;4836;-70
2023/06/28 02:46:47;;;;;;;;;;;25.90;46.90;;;;;;3051589;19;5002;-70
2023/06/28 02:47:48;;;;;;;;;;;25.90;46.90;;;;;;3052466;19;4481;-70
2023/06/28 02:48:48;;;;;;;;;;;26.00;47.00;;;;;;3052975;19;4536;-70
2023/06/28 02:49:49;;;;;;;;;;;25.90;46.90;;;;;;3054081;19;4403;-70
2023/06/28 02:50:50;;;;;;;;;;;25.90;46.90;;;;;;3052586;19;4479;-70
2023/06/28 02:51:51;;;;;;;;;;;25.90;46.80;;;;;;3053931;19;5107;-71
2023/06/28 02:52:51;;;;;;;;;;;26.00;46.90;;;;;;3052295;19;4580;-71
2023/06/28 02:53:52;;;;;;;;;;;25.90;46.90;;;;;;3052659;19;4548;-71
2023/06/28 02:54:53;;;;;;;;;;;25.90;46.90;;;;;;3053275;19;5032;-71
2023/06/28 02:55:53;;;;;;;;;;;25.90;46.90;;;;;;3052460;19;4473;-71
2023/06/28 02:56:54;;;;;;;;;;;26.00;47.00;;;;;;3052220;19;5127;-71
2023/06/28 02:57:55;;;;;;;;;;;25.90;46.90;;;;;;3052016;19;5501;-71
2023/06/28 02:58:55;;;;;;;;;;;25.90;46.90;;;;;;3053770;19;4659;-71
2023/06/28 02:59:56;;;;;;;;;;;25.90;47.00;;;;;;3052477;19;5060;-71
2023/06/28 03:00:57;;;;;;;;;;;25.90;46.90;;;;;;3054134;19;4303;-71
2023/06/28 03:01:58;;;;;;;;;;;25.90;46.90;;;;;;3053535;19;5070;-71
2023/06/28 03:02:58;;;;;;;;;;;25.90;47.00;;;;;;3053849;19;5204;-71
2023/06/28 03:03:59;;;;;;;;;;;25.90;46.90;;;;;;3052772;19;4537;-71
2023/06/28 03:04:59;;;;;;;;;;;25.90;47.00;;;;;;3052561;19;4376;-71
2023/06/28 03:06:00;;;;;;;;;;;25.90;47.00;;;;;;3053953;19;4571;-71
2023/06/28 03:07:01;;;;;;;;;;;25.90;47.00;;;;;;3053211;19;4581;-71
2023/06/28 03:08:03;;;;;;;;;;;25.90;47.00;;;;;;3053967;19;4554;-71
2023/06/28 03:09:04;;;;;;;;;;;25.90;47.00;;;;;;3053967;19;4999;-71
2023/06/28 03:10:05;;;;;;;;;;;25.90;47.00;;;;;;3053457;19;4594;-71
2023/06/28 03:11:06;;;;;;;;;;;25.90;47.00;;;;;;3053306;19;4732;-70
2023/06/28 03:12:07;;;;;;;;;;;25.90;47.00;;;;;;3053333;19;5015;-70
2023/06/28 03:13:07;;;;;;;;;;;25.90;47.00;;;;;;3053356;19;4653;-70
2023/06/28 03:14:08;;;;;;;;;;;25.90;47.00;;;;;;3050768;19;5163;-71
2023/06/28 03:15:09;;;;;;;;;;;25.90;47.00;;;;;;3053298;19;4696;-70
2023/06/28 03:16:09;;;;;;;;;;;25.90;47.00;;;;;;3053740;19;4511;-71
2023/06/28 03:17:10;;;;;;;;;;;25.90;47.00;;;;;;3052678;19;4562;-71
2023/06/28 03:18:11;;;;;;;;;;;25.90;47.00;;;;;;3053794;19;4577;-71
2023/06/28 03:19:12;;;;;;;;;;;25.90;47.10;;;;;;3054469;19;980;-71
2023/06/28 03:20:12;;;;;;;;;;;25.90;47.00;;;;;;3052233;19;5077;-70
2023/06/28 03:21:13;;;;;;;;;;;25.90;47.00;;;;;;3052853;19;4939;-71
2023/06/28 03:22:14;;;;;;;;;;;25.90;47.00;;;;;;3052997;19;5185;-71
2023/06/28 03:23:14;;;;;;;;;;;25.90;47.00;;;;;;3053859;19;5110;-71
2023/06/28 03:24:15;;;;;;;;;;;26.00;47.10;;;;;;3053349;19;5078;-71
2023/06/28 03:25:16;;;;;;;;;;;25.90;47.10;;;;;;3053668;19;5183;-70
2023/06/28 03:26:16;;;;;;;;;;;25.90;47.10;;;;;;3053641;19;5189;-71
2023/06/28 03:27:17;;;;;;;;;;;25.90;47.10;;;;;;3053818;19;4892;-71
2023/06/28 03:28:18;;;;;;;;;;;25.90;47.10;;;;;;3051132;19;4564;-71
2023/06/28 03:29:19;;;;;;;;;;;25.90;47.10;;;;;;3052877;19;4431;-70
2023/06/28 03:30:19;;;;;;;;;;;25.90;47.00;;;;;;3052731;19;4401;-71
2023/06/28 03:31:20;;;;;;;;;;;25.90;47.10;;;;;;3053509;19;4540;-70
2023/06/28 03:32:21;;;;;;;;;;;25.90;47.10;;;;;;3052736;19;4389;-70
2023/06/28 03:33:21;;;;;;;;;;;25.90;47.10;;;;;;3053092;19;5400;-71
2023/06/28 03:34:22;;;;;;;;;;;25.90;47.10;;;;;;3053650;19;4387;-71
2023/06/28 03:35:22;;;;;;;;;;;25.90;47.10;;;;;;3053341;19;4617;-71
2023/06/28 03:36:24;;;;;;;;;;;26.30;47.40;;;;;;3053431;19;6180;-71
2023/06/28 03:37:25;;;;;;;;;;;25.90;47.20;;;;;;3053611;19;4626;-71
2023/06/28 03:38:26;;;;;;;;;;;25.80;47.10;;;;;;3053273;19;4389;-71
2023/06/28 03:39:26;;;;;;;;;;;25.90;47.20;;;;;;3053043;19;5401;-76
2023/06/28 03:40:29;;;;;;;;;;;26.00;47.10;;;;;;3053903;19;4381;-75
2023/06/28 03:41:29;;;;;;;;;;;26.00;47.00;;;;;;3054131;19;5118;-75
2023/06/28 03:42:30;;;;;;;;;;;26.20;46.80;;;;;;3054222;19;5129;-75
2023/06/28 03:43:31;;;;;;;;;;;26.20;46.80;;;;;;3051331;19;4545;-75
2023/06/28 03:44:31;;;;;;;;;;;26.30;46.60;;;;;;3052650;19;5562;-75
2023/06/28 03:45:33;;;;;;;;;;;26.30;46.60;;;;;;3053412;19;5897;-75
2023/06/28 03:46:34;;;;;;;;;;;26.30;46.50;;;;;;3054229;19;4566;-75
2023/06/28 03:47:34;;;;;;;;;;;26.30;46.50;;;;;;3054355;19;5011;-75
2023/06/28 03:48:35;;;;;;;;;;;26.40;46.50;;;;;;3052349;19;5033;-75
2023/06/28 03:49:36;;;;;;;;;;;26.40;46.40;;;;;;3052776;19;5260;-71
2023/06/28 03:50:36;;;;;;;;;;;26.40;46.40;;;;;;3052699;19;4781;-71
2023/06/28 03:51:37;;;;;;;;;;;26.40;46.30;;;;;;3052616;19;5708;-71
2023/06/28 03:52:38;;;;;;;;;;;26.40;46.40;;;;;;3054070;19;5151;-71
2023/06/28 03:53:38;;;;;;;;;;;26.40;46.40;;;;;;3051691;19;5131;-70
2023/06/28 03:54:39;;;;;;;;;;;26.40;46.40;;;;;;3053340;19;4536;-71
2023/06/28 03:55:40;;;;;;;;;;;26.30;46.30;;;;;;3052083;19;5567;-71
2023/06/28 03:56:40;;;;;;;;;;;26.00;46.10;;;;;;3051168;19;5529;-71
2023/06/28 03:57:41;;;;;;;;;;;26.30;46.30;;;;;;3056442;19;4546;-71
2023/06/28 03:58:42;;;;;;;;;;;26.30;46.30;;;;;;3055792;19;4678;-71
2023/06/28 03:59:42;;;;;;;;;;;26.40;46.30;;;;;;3054011;19;4573;-71
2023/06/28 04:00:43;;;;;;;;;;;26.40;46.40;;;;;;3055278;19;5138;-71
2023/06/28 04:01:44;;;;;;;;;;;26.30;46.30;;;;;;3055446;19;4378;-71
2023/06/28 04:02:45;;;;;;;;;;;26.30;46.30;;;;;;3054385;19;4572;-71
2023/06/28 04:03:45;;;;;;;;;;;26.30;46.40;;;;;;3055093;19;4631;-71
2023/06/28 04:04:46;;;;;;;;;;;26.30;46.50;;;;;;3052202;19;4928;-71
2023/06/28 04:05:46;;;;;;;;;;;26.30;46.40;;;;;;3054781;19;5147;-71
2023/06/28 04:06:47;;;;;;;;;;;26.40;46.50;;;;;;3055033;19;5107;-71
2023/06/28 04:07:54;;;;;;;;;;;26.30;46.30;;;;;;3054481;19;4367;-71
2023/06/28 04:08:55;;;;;;;;;;;26.40;46.30;;;;;;3054980;19;4414;-71
2023/06/28 04:09:55;;;;;;;;;;;26.40;46.10;;;;;;3054530;19;4832;-71
2023/06/28 04:10:56;;;;;;;;;;;26.50;46.10;;;;;;3054567;19;5072;-70
2023/06/28 04:11:57;;;;;;;;;;;26.60;46.10;;;;;;3053265;19;4901;-70
2023/06/28 04:12:57;;;;;;;;;;;26.60;46.00;;;;;;3053966;19;5093;-71
2023/06/28 04:13:58;;;;;;;;;;;26.60;46.00;;;;;;3054532;19;5555;-71
2023/06/28 04:15:01;;;;;;;;;;;26.60;45.90;;;;;;3053507;19;4613;-71
2023/06/28 04:16:01;;;;;;;;;;;26.60;45.90;;;;;;3054480;19;4650;-71
2023/06/28 04:17:02;;;;;;;;;;;26.60;45.90;;;;;;3054325;19;4649;-71
2023/06/28 04:18:03;;;;;;;;;;;27.10;46.30;;;;;;3053767;19;4970;-71
2023/06/28 04:19:05;;;;;;;;;;;26.60;45.90;;;;;;3053503;19;4765;-71
2023/06/28 04:20:06;;;;;;;;;;;26.60;45.90;;;;;;3054224;19;4440;-71
2023/06/28 04:21:07;;;;;;;;;;;26.60;45.90;;;;;;3053910;19;6136;-72
2023/06/28 04:22:08;;;;;;;;;;;26.60;46.00;;;;;;3052568;19;5415;-71
2023/06/28 04:23:08;;;;;;;;;;;26.60;45.90;;;;;;3054078;19;1212;-71
2023/06/28 04:24:09;;;;;;;;;;;26.60;46.00;;;;;;3053250;19;5801;-71
2023/06/28 04:25:10;;;;;;;;;;;26.60;46.00;;;;;;3051552;19;5038;-71
2023/06/28 04:26:10;;;;;;;;;;;26.60;46.00;;;;;;3050033;19;5219;-70
2023/06/28 04:27:11;;;;;;;;;;;26.50;45.90;;;;;;3051723;19;895;-70
2023/06/28 04:28:12;;;;;;;;;;;26.50;45.90;;;;;;3050459;19;5169;-69
2023/06/28 04:29:13;;;;;;;;;;;26.50;45.90;;;;;;3048991;19;830;-70
2023/06/28 04:30:14;;;;;;;;;;;26.60;46.00;;;;;;3048067;19;5315;-70
2023/06/28 04:31:15;;;;;;;;;;;26.50;45.90;;;;;;3050079;19;5022;-70
2023/06/28 04:32:23;;;;;;;;;;;26.50;46.00;;;;;;3052521;19;4383;-71
2023/06/28 04:33:23;;;;;;;;;;;26.50;46.00;;;;;;3052822;19;5211;-70
2023/06/28 04:34:24;;;;;;;;;;;26.50;46.00;;;;;;3051411;19;5145;-70
2023/06/28 04:35:24;;;;;;;;;;;26.50;46.00;;;;;;3051800;19;5042;-70
2023/06/28 04:36:25;;;;;;;;;;;26.50;46.10;;;;;;3048400;19;5066;-70
2023/06/28 04:37:27;;;;;;;;;;;26.50;46.10;;;;;;3048745;19;5139;-70
2023/06/28 04:38:28;;;;;;;;;;;26.40;46.10;;;;;;3051893;19;5156;-70
2023/06/28 04:39:28;;;;;;;;;;;26.50;46.00;;;;;;3050848;19;4427;-70
2023/06/28 04:40:32;;;;;;;;;;;26.60;46.10;;;;;;3053023;19;4726;-70
2023/06/28 04:41:32;;;;;;;;;;;26.60;46.10;;;;;;3053345;19;5098;-70
2023/06/28 04:42:34;;;;;;;;;;;26.70;45.80;;;;;;3052604;19;4497;-70
2023/06/28 04:43:43;;;;;;;;;;;26.70;45.70;;;;;;3050979;19;4349;-70
2023/06/28 04:44:43;;;;;;;;;;;26.70;45.70;;;;;;3050361;19;4565;-70
2023/06/28 04:45:44;;;;;;;;;;;26.70;45.70;;;;;;3048359;19;5291;-70
2023/06/28 04:46:45;;;;;;;;;;;26.70;45.70;;;;;;3050641;19;5440;-70
2023/06/28 04:47:46;;;;;;;;;;;26.70;45.60;;;;;;3052472;19;5100;-70
2023/06/28 04:48:46;;;;;;;;;;;26.70;45.60;;;;;;3052339;19;5023;-70
2023/06/28 04:49:50;;;;;;;;;;;26.70;45.60;;;;;;3050318;19;5120;-68
2023/06/28 04:50:51;;;;;;;;;;;26.70;45.70;;;;;;3052192;19;4997;-69
2023/06/28 04:51:51;;;;;;;;;;;26.70;45.60;;;;;;3051817;19;5097;-68
2023/06/28 04:52:52;;;;;;;;;;;26.70;45.70;;;;;;3051465;19;5115;-69
2023/06/28 04:53:53;;;;;;;;;;;26.70;45.70;;;;;;3051819;19;5201;-68
2023/06/28 04:54:53;;;;;;;;;;;26.70;45.70;;;;;;3049690;19;5187;-69
2023/06/28 04:55:54;;;;;;;;;;;26.70;45.70;;;;;;3051129;19;4551;-68
2023/06/28 04:56:55;;;;;;;;;;;26.60;45.70;;;;;;3051254;19;5281;-68
2023/06/28 04:57:55;;;;;;;;;;;26.60;45.70;;;;;;3052328;19;5515;-68
2023/06/28 04:58:56;;;;;;;;;;;26.70;45.70;;;;;;3052310;19;5131;-68
2023/06/28 04:59:57;;;;;;;;;;;26.70;45.70;;;;;;3052333;19;4349;-70
2023/06/28 05:00:58;;;;;;;;;;;26.70;45.80;;;;;;3051884;19;4502;-70
2023/06/28 05:01:58;;;;;;;;;;;26.60;45.70;;;;;;3052638;19;5018;-70
2023/06/28 05:03:02;;;;;;;;;;;26.70;45.90;;;;;;3052749;19;4929;-70
2023/06/28 05:04:03;;;;;;;;;;;26.60;45.70;;;;;;3050496;19;5122;-69
2023/06/28 05:05:04;;;;;;;;;;;26.60;45.80;;;;;;3052514;19;4364;-70
2023/06/28 05:06:08;;;;;;;;;;;26.60;45.80;;;;;;3050836;19;5086;-69
2023/06/28 05:07:09;;;;;;;;;;;26.60;45.80;;;;;;3051725;19;4318;-70
2023/06/28 05:08:09;;;;;;;;;;;26.60;45.80;;;;;;3052086;19;905;-70
2023/06/28 05:09:10;;;;;;;;;;;26.60;45.90;;;;;;3051220;19;4966;-69
2023/06/28 05:10:12;;;;;;;;;;;26.60;45.90;;;;;;3052541;19;5162;-83
2023/06/28 05:11:13;;;;;;;;;;;26.60;46.00;;;;;;3052473;19;1373;-83
2023/06/28 05:12:14;;;;;;;;;;;26.60;45.90;;;;;;3051511;19;5369;-83
2023/06/28 05:13:14;;;;;;;;;;;26.60;45.90;;;;;;3050996;19;1864;-83
2023/06/28 05:14:15;;;;;;;;;;;26.60;45.90;;;;;;3050898;19;5047;-84
2023/06/28 05:15:16;;;;;;;;;;;26.60;46.00;;;;;;3051399;19;4738;-83
2023/06/28 05:16:16;;;;;;;;;;;26.60;46.10;;;;;;3052301;19;6077;-84
2023/06/28 05:17:17;;;;;;;;;;;26.60;46.10;;;;;;3052047;19;4359;-86
2023/06/28 05:18:18;;;;;;;;;;;26.70;45.80;;;;;;3052815;19;5503;-83
2023/06/28 05:19:19;;;;;;;;;;;26.70;45.60;;;;;;3051218;19;4379;-82
2023/06/28 05:20:19;;;;;;;;;;;26.70;45.60;;;;;;3051949;19;4508;-81
2023/06/28 05:21:20;;;;;;;;;;;26.80;45.60;;;;;;3051732;19;4567;-81
2023/06/28 05:22:22;;;;;;;;;;;26.80;45.50;;;;;;3050165;19;4613;-82
2023/06/28 05:23:22;;;;;;;;;;;26.80;45.50;;;;;;3050686;19;5085;-81
2023/06/28 05:24:23;;;;;;;;;;;26.80;45.50;;;;;;3050758;19;4267;-81
2023/06/28 05:25:23;;;;;;;;;;;26.80;45.50;;;;;;3051675;19;5040;-81
2023/06/28 05:26:24;;;;;;;;;;;26.80;45.50;;;;;;3051094;19;5050;-81
2023/06/28 05:27:25;;;;;;;;;;;26.80;45.50;;;;;;3050909;19;5057;-82
2023/06/28 05:28:26;;;;;;;;;;;26.80;45.50;;;;;;3051555;19;5680;-81
2023/06/28 05:29:26;;;;;;;;;;;27.00;45.70;;;;;;3051295;19;4416;-82
2023/06/28 05:30:27;;;;;;;;;;;26.80;45.50;;;;;;3051585;19;4409;-82
2023/06/28 05:31:28;;;;;;;;;;;26.80;45.60;;;;;;3052220;19;5294;-81
2023/06/28 05:32:28;;;;;;;;;;;26.80;45.60;;;;;;3050151;19;4387;-81
2023/06/28 05:33:29;;;;;;;;;;;26.80;45.60;;;;;;3051353;19;4685;-81
2023/06/28 05:34:30;;;;;;;;;;;26.80;45.50;;;;;;3052443;19;5096;-82
2023/06/28 05:35:31;;;;;;;;;;;26.80;45.60;;;;;;3050872;19;5124;-81
2023/06/28 05:36:32;;;;;;;;;;;26.70;45.50;;;;;;3050196;19;5141;-81
2023/06/28 05:37:33;;;;;;;;;;;26.80;45.60;;;;;;3054251;19;4415;-81
2023/06/28 05:38:33;;;;;;;;;;;26.80;45.70;;;;;;3053851;19;4979;-82
2023/06/28 05:39:34;;;;;;;;;;;26.80;45.60;;;;;;3053209;19;4820;-82
2023/06/28 05:40:35;;;;;;;;;;;26.70;45.50;;;;;;3054529;19;4563;-82
2023/06/28 05:41:36;;;;;;;;;;;26.70;45.50;;;;;;3054093;19;4650;-82
2023/06/28 05:42:36;;;;;;;;;;;26.80;45.60;;;;;;3054611;19;5074;-82
2023/06/28 05:43:37;;;;;;;;;;;26.70;45.50;;;;;;3052882;19;4405;-82
2023/06/28 05:44:37;;;;;;;;;;;26.70;45.70;;;;;;3052168;19;4453;-82
2023/06/28 05:45:38;;;;;;;;;;;26.70;45.60;;;;;;3053550;19;4938;-82
2023/06/28 05:46:39;;;;;;;;;;;26.70;45.60;;;;;;3052145;19;4994;-82
2023/06/28 05:47:39;;;;;;;;;;;26.70;45.60;;;;;;3054093;19;4890;-83
2023/06/28 05:48:40;;;;;;;;;;;26.70;45.70;;;;;;3052338;19;5146;-83
2023/06/28 05:49:42;;;;;;;;;;;26.70;45.70;;;;;;3053999;19;4706;-83
2023/06/28 05:50:45;;;;;;;;;;;26.70;45.70;;;;;;3055318;19;5172;-84
2023/06/28 05:51:46;;;;;;;;;;;26.70;45.70;;;;;;3053818;19;4910;-84
2023/06/28 05:52:47;;;;;;;;;;;26.70;45.70;;;;;;3054003;19;4988;-83
2023/06/28 05:53:48;;;;;;;;;;;26.70;45.70;;;;;;3053997;19;4578;-84
2023/06/28 05:54:48;;;;;;;;;;;26.60;45.70;;;;;;3051955;19;5099;-84
2023/06/28 05:55:49;;;;;;;;;;;26.60;45.80;;;;;;3052517;19;4515;-84
2023/06/28 05:56:50;;;;;;;;;;;26.60;45.80;;;;;;3053569;19;5083;-84
2023/06/28 05:57:50;;;;;;;;;;;26.70;45.90;;;;;;3053671;19;4497;-84
2023/06/28 05:58:51;;;;;;;;;;;26.60;45.70;;;;;;3049526;19;5177;-80
2023/06/28 05:59:51;;;;;;;;;;;26.60;45.70;;;;;;3053425;19;5073;-82
2023/06/28 06:00:52;;;;;;;;;;;26.60;45.90;;;;;;3052392;19;5108;-83
2023/06/28 06:01:53;;;;;;;;;;;26.60;45.90;;;;;;3051990;19;4534;-82
2023/06/28 06:02:53;;;;;;;;;;;26.70;45.80;;;;;;3055025;19;5503;-82
2023/06/28 06:03:54;;;;;;;;;;;26.70;45.70;;;;;;3054818;19;5166;-83
2023/06/28 06:04:55;;;;;;;;;;;27.10;45.90;;;;;;3054787;19;4355;-82
2023/06/28 06:05:55;;;;;;;;;;;26.80;45.50;;;;;;3053891;19;4616;-83
2023/06/28 06:06:56;;;;;;;;;;;26.80;45.60;;;;;;3052177;19;5347;-83
2023/06/28 06:07:57;;;;;;;;;;;26.80;45.50;;;;;;3054432;19;5103;-82
2023/06/28 06:08:57;;;;;;;;;;;26.80;45.50;;;;;;3053590;19;5187;-84
2023/06/28 06:09:58;;;;;;;;;;;26.80;45.80;;;;;;3054655;19;4458;-70
2023/06/28 06:10:59;;;;;;;;;;;26.80;45.50;;;;;;3055399;19;5071;-70
2023/06/28 06:11:59;;;;;;;;;;;26.80;45.50;;;;;;3053427;19;5182;-70
2023/06/28 06:13:00;;;;;;;;;;;26.80;45.50;;;;;;3053929;19;5111;-70
2023/06/28 06:14:00;;;;;;;;;;;26.80;45.50;;;;;;3054910;19;5080;-71
2023/06/28 06:15:01;;;;;;;;;;;26.80;45.50;;;;;;3053855;19;4548;-71
2023/06/28 06:16:02;;;;;;;;;;;26.80;45.60;;;;;;3053462;19;5045;-71
2023/06/28 06:17:03;;;;;;;;;;;26.70;45.50;;;;;;3055269;19;5077;-71
2023/06/28 06:18:03;;;;;;;;;;;26.70;45.50;;;;;;3053274;19;5037;-69
2023/06/28 06:19:04;;;;;;;;;;;26.80;45.60;;;;;;3053888;19;5020;-69
2023/06/28 06:20:05;;;;;;;;;;;26.70;45.50;;;;;;3052935;19;4533;-78
2023/06/28 06:21:06;;;;;;;;;;;26.70;45.60;;;;;;3053328;19;4318;-75
2023/06/28 06:22:07;;;;;;;;;;;26.70;45.60;;;;;;3053411;19;5111;-76
2023/06/28 06:23:07;;;;;;;;;;;26.70;45.70;;;;;;3054672;19;4440;-78
2023/06/28 06:24:08;;;;;;;;;;;26.70;45.70;;;;;;3053979;19;5291;-77
2023/06/28 06:25:09;;;;;;;;;;;26.70;45.80;;;;;;3054421;19;851;-77
2023/06/28 06:26:09;;;;;;;;;;;26.60;45.70;;;;;;3053436;19;5431;-76
2023/06/28 06:27:10;;;;;;;;;;;26.70;45.80;;;;;;3053032;19;5093;-81
2023/06/28 06:28:11;;;;;;;;;;;26.70;45.90;;;;;;3053700;19;5218;-81
2023/06/28 06:29:11;;;;;;;;;;;26.60;45.80;;;;;;3054428;19;4487;-81
2023/06/28 06:30:13;;;;;;;;;;;26.60;45.90;;;;;;3053544;19;4403;-81
2023/06/28 06:31:15;;;;;;;;;;;26.60;45.90;;;;;;3054243;19;5111;-81
2023/06/28 06:32:15;;;;;;;;;;;26.60;45.90;;;;;;3054484;19;5558;-83
2023/06/28 06:33:16;;;;;;;;;;;26.60;46.00;;;;;;3054129;19;5168;-79
2023/06/28 06:34:16;;;;;;;;;;;26.60;46.00;;;;;;3054149;19;4504;-80
2023/06/28 06:35:17;;;;;;;;;;;26.60;46.00;;;;;;3054547;19;5297;-80
2023/06/28 06:36:18;;;;;;;;;;;26.60;46.00;;;;;;3055335;19;4832;-80
2023/06/28 06:37:18;;;;;;;;;;;26.60;46.00;;;;;;3051690;19;5125;-81
2023/06/28 06:38:19;;;;;;;;;;;26.60;46.10;;;;;;3054647;19;4358;-80
2023/06/28 06:39:20;;;;;;;;;;;26.60;46.10;;;;;;3054293;19;4578;-81
2023/06/28 06:40:20;;;;;;;;;;;26.60;46.10;;;;;;3054194;19;5251;-80
2023/06/28 06:41:21;;;;;;;;;;;26.60;46.20;;;;;;3055179;19;4496;-80
2023/06/28 06:42:22;;;;;;;;;;;26.50;46.10;;;;;;3053125;19;4550;-79
2023/06/28 06:43:22;;;;;;;;;;;26.60;46.20;;;;;;3055059;19;4379;-79
2023/06/28 06:44:23;;;;;;;;;;;26.50;46.20;;;;;;3053458;19;4666;-79
2023/06/28 06:45:24;;;;;;;;;;;26.50;46.20;;;;;;3052685;19;4811;-80
2023/06/28 06:46:24;;;;;;;;;;;26.50;46.20;;;;;;3054382;19;5140;-80
2023/06/28 06:47:25;;;;;;;;;;;26.50;46.20;;;;;;3053401;19;5004;-78
2023/06/28 06:48:26;;;;;;;;;;;26.50;46.20;;;;;;3052201;19;4428;-78
2023/06/28 06:49:26;;;;;;;;;;;26.50;46.30;;;;;;3056085;19;4965;-79
2023/06/28 06:50:27;;;;;;;;;;;26.50;46.20;;;;;;3058673;19;5171;-79
2023/06/28 06:51:28;;;;;;;;;;;26.50;46.20;;;;;;3056178;19;5106;-76
2023/06/28 06:52:28;;;;;;;;;;;26.50;46.20;;;;;;3057307;19;4386;-77
2023/06/28 06:53:29;;;;;;;;;;;26.50;46.30;;;;;;3057347;19;4648;-77
2023/06/28 06:54:29;;;;;;;;;;;26.50;46.30;;;;;;3054826;19;4406;-76
2023/06/28 06:55:30;;;;;;;;;;;26.50;46.40;;;;;;3055825;19;5113;-85
2023/06/28 06:56:31;;;;;;;;;;;26.50;46.30;;;;;;3054828;19;4891;-76
2023/06/28 06:57:31;;;;;;;;;;;26.50;46.30;;;;;;3054843;19;5052;-76
2023/06/28 06:58:33;;;;;;;;;;;26.40;46.30;;;;;;3053504;19;5361;-75
2023/06/28 06:59:33;;;;;;;;;;;26.50;46.40;;;;;;3056834;19;5551;-77
2023/06/28 07:00:34;;;;;;;;;;;26.40;46.30;;;;;;3054979;19;4617;-76
2023/06/28 07:01:35;;;;;;;;;;;26.40;46.30;;;;;;3054233;19;5097;-77
2023/06/28 07:02:35;;;;;;;;;;;26.40;46.40;;;;;;3054301;19;4506;-76
2023/06/28 07:03:36;;;;;;;;;;;26.40;46.40;;;;;;3054442;19;5012;-76
2023/06/28 07:04:38;;;;;;;;;;;26.40;46.40;;;;;;3054259;19;4649;-76
2023/06/28 07:05:38;;;;;;;;;;;26.40;46.50;;;;;;3055475;19;5068;-76
2023/06/28 07:06:39;;;;;;;;;;;26.40;46.50;;;;;;3055281;19;5199;-76
2023/06/28 07:07:40;;;;;;;;;;;26.40;46.40;;;;;;3054905;19;4493;-76
2023/06/28 07:08:40;;;;;;;;;;;26.50;46.40;;;;;;3053432;19;5094;-76
2023/06/28 07:09:41;;;;;;;;;;;26.60;46.20;;;;;;3055810;19;4544;-76
2023/06/28 07:10:42;;;;;;;;;;;26.60;46.20;;;;;;3054252;19;5114;-76
2023/06/28 07:11:43;;;;;;;;;;;26.60;46.20;;;;;;3054202;19;4927;-77
2023/06/28 07:12:43;;;;;;;;;;;26.70;46.20;;;;;;3054675;19;5145;-76
2023/06/28 07:13:44;;;;;;;;;;;26.60;46.10;;;;;;3054446;19;4740;-76
2023/06/28 07:14:45;;;;;;;;;;;26.70;46.10;;;;;;3053238;19;4493;-76
2023/06/28 07:15:46;;;;;;;;;;;26.70;46.10;;;;;;3054243;19;5125;-76
2023/06/28 07:16:46;;;;;;;;;;;26.60;46.10;;;;;;3054563;19;4541;-76
2023/06/28 07:17:47;;;;;;;;;;;26.60;46.10;;;;;;3054080;19;4555;-76
2023/06/28 07:18:48;;;;;;;;;;;26.70;46.10;;;;;;3052879;19;4387;-76
2023/06/28 07:19:48;;;;;;;;;;;26.70;46.10;;;;;;3054905;19;4498;-70
2023/06/28 07:20:49;;;;;;;;;;;26.60;46.10;;;;;;3054016;19;4535;-70
2023/06/28 07:21:50;;;;;;;;;;;26.60;46.20;;;;;;3053983;19;5450;-70